createdAt,value
2019-02-15T00:00:31.861Z,9.70
2019-02-15T00:02:59.218Z,12.90
2019-02-15T00:05:26.704Z,9.60
2019-02-15T00:07:54.042Z,6.70
2019-02-15T00:10:21.403Z,9.50
2019-02-15T00:12:48.794Z,9.50
2019-02-15T00:15:16.261Z,9.50
2019-02-15T00:18:09.357Z,9.50
2019-02-15T00:20:41.164Z,9.40
2019-02-15T00:23:08.645Z,9.50
2019-02-15T00:25:36.171Z,9.40
2019-02-15T00:28:23.047Z,9.30
2019-02-15T00:30:50.648Z,8.90
2019-02-15T00:33:18.049Z,7.30
2019-02-15T00:35:45.470Z,9.30
2019-02-15T00:38:14.819Z,11.70
2019-02-15T00:40:42.208Z,9.20
2019-02-15T00:43:09.675Z,9.90
2019-02-15T00:45:46.679Z,9.20
2019-02-15T00:48:16.517Z,12.10
2019-02-15T00:51:05.199Z,9.20
2019-02-15T00:53:57.262Z,11.00
2019-02-15T00:56:44.174Z,9.10
2019-02-15T00:59:28.323Z,10.80
2019-02-15T01:02:03.712Z,9.40
2019-02-15T01:04:49.317Z,9.10
2019-02-15T01:07:23.827Z,9.20
2019-02-15T01:10:09.943Z,9.10
2019-02-15T01:12:50.541Z,9.00
2019-02-15T01:15:18.069Z,9.00
2019-02-15T01:17:45.564Z,11.30
2019-02-15T01:20:13.153Z,8.90
2019-02-15T01:22:40.749Z,8.90
2019-02-15T01:25:08.169Z,8.90
2019-02-15T01:27:59.223Z,8.90
2019-02-15T01:30:55.383Z,9.00
2019-02-15T01:33:48.092Z,8.90
2019-02-15T01:36:33.121Z,9.40
2019-02-15T01:39:29.239Z,8.90
2019-02-15T01:42:21.990Z,10.60
2019-02-15T01:44:53.990Z,8.90
2019-02-15T01:47:34.481Z,11.30
2019-02-15T01:50:01.883Z,10.80
2019-02-15T01:52:29.208Z,10.70
2019-02-15T01:54:56.610Z,8.90
2019-02-15T01:57:23.910Z,8.90
2019-02-15T01:59:51.310Z,8.80
2019-02-15T02:02:19.174Z,8.90
2019-02-15T02:04:46.962Z,10.30
2019-02-15T02:07:14.383Z,9.00
2019-02-15T02:09:41.761Z,7.30
2019-02-15T02:12:09.377Z,13.00
2019-02-15T02:14:36.778Z,8.90
2019-02-15T02:17:04.088Z,9.10
2019-02-15T02:19:31.522Z,9.00
2019-02-15T02:21:58.836Z,10.60
2019-02-15T02:24:26.067Z,8.70
2019-02-15T02:26:53.464Z,8.70
2019-02-15T02:29:20.852Z,10.50
2019-02-15T02:31:48.025Z,8.80
2019-02-15T02:34:15.382Z,8.70
2019-02-15T02:36:53.281Z,9.10
2019-02-15T02:39:20.904Z,11.10
2019-02-15T02:41:48.361Z,10.50
2019-02-15T02:44:15.883Z,8.90
2019-02-15T02:46:43.324Z,8.50
2019-02-15T02:49:10.770Z,8.60
2019-02-15T02:51:38.097Z,11.50
2019-02-15T02:54:05.310Z,8.60
2019-02-15T02:56:32.629Z,8.90
2019-02-15T02:59:00.052Z,9.60
2019-02-15T03:01:27.570Z,8.50
2019-02-15T03:03:55.014Z,8.40
2019-02-15T03:06:22.326Z,9.90
2019-02-15T03:08:49.817Z,8.60
2019-02-15T03:11:17.164Z,7.90
2019-02-15T03:13:44.549Z,9.80
2019-02-15T03:16:12.836Z,8.70
2019-02-15T03:18:40.127Z,8.40
2019-02-15T03:21:07.468Z,9.20
2019-02-15T03:23:34.887Z,8.40
2019-02-15T03:26:02.317Z,5.20
2019-02-15T03:28:29.811Z,8.80
2019-02-15T03:30:57.306Z,9.20
2019-02-15T03:33:24.688Z,8.70
2019-02-15T03:35:57.678Z,9.00
2019-02-15T03:38:33.772Z,8.70
2019-02-15T03:41:03.366Z,8.50
2019-02-15T03:43:30.797Z,8.20
2019-02-15T03:45:58.231Z,8.20
2019-02-15T03:48:25.622Z,8.20
2019-02-15T03:50:53.065Z,8.10
2019-02-15T03:53:20.603Z,8.10
2019-02-15T03:55:48.182Z,8.10
2019-02-15T03:58:15.641Z,8.10
2019-02-15T04:00:43.035Z,8.10
2019-02-15T04:03:10.535Z,8.00
2019-02-15T04:05:37.893Z,8.00
2019-02-15T04:08:06.369Z,8.00
2019-02-15T04:10:33.713Z,8.00
2019-02-15T04:13:01.242Z,9.60
2019-02-15T04:15:28.625Z,7.90
2019-02-15T04:17:55.929Z,8.40
2019-02-15T04:20:23.387Z,8.10
2019-02-15T04:22:50.829Z,8.40
2019-02-15T04:25:18.221Z,7.90
2019-02-15T04:27:45.593Z,8.50
2019-02-15T04:30:13.000Z,7.40
2019-02-15T04:32:40.360Z,7.90
2019-02-15T04:35:07.808Z,9.40
2019-02-15T04:37:35.359Z,9.00
2019-02-15T04:40:02.839Z,7.80
2019-02-15T04:42:30.236Z,7.80
2019-02-15T04:44:57.714Z,7.80
2019-02-15T04:47:25.400Z,7.60
2019-02-15T04:49:52.788Z,7.80
2019-02-15T04:52:20.071Z,7.70
2019-02-15T04:54:47.390Z,8.80
2019-02-15T04:57:14.830Z,7.70
2019-02-15T04:59:42.169Z,7.70
2019-02-15T05:02:09.540Z,7.70
2019-02-15T05:04:36.877Z,7.70
2019-02-15T05:07:04.269Z,7.60
2019-02-15T05:09:31.766Z,8.20
2019-02-15T05:11:59.054Z,7.60
2019-02-15T05:14:26.244Z,7.60
2019-02-15T05:16:53.536Z,7.50
2019-02-15T05:19:21.021Z,7.50
2019-02-15T05:21:48.489Z,7.50
2019-02-15T05:24:15.876Z,10.80
2019-02-15T05:26:43.226Z,7.50
2019-02-15T05:29:10.540Z,7.40
2019-02-15T05:31:37.869Z,7.50
2019-02-15T05:34:05.372Z,7.50
2019-02-15T05:36:32.807Z,7.50
2019-02-15T05:39:00.251Z,7.60
2019-02-15T05:41:27.596Z,7.40
2019-02-15T05:43:54.918Z,7.40
2019-02-15T05:46:22.273Z,7.40
2019-02-15T05:48:49.556Z,7.80
2019-02-15T05:51:16.974Z,9.40
2019-02-15T05:53:45.189Z,7.40
2019-02-15T05:56:12.536Z,7.40
2019-02-15T05:58:40.222Z,7.50
2019-02-15T06:01:10.320Z,7.50
2019-02-15T06:03:37.882Z,7.50
2019-02-15T06:06:05.268Z,5.60
2019-02-15T06:08:32.681Z,7.50
2019-02-15T06:11:07.226Z,7.50
2019-02-15T06:13:30.175Z,7.50
2019-02-15T06:15:57.623Z,7.50
2019-02-15T06:18:25.960Z,7.80
2019-02-15T06:20:53.331Z,10.50
2019-02-15T06:23:20.722Z,10.60
2019-02-15T06:25:48.136Z,7.40
2019-02-15T06:28:15.495Z,8.70
2019-02-15T06:30:42.970Z,7.40
2019-02-15T06:33:10.448Z,7.40
2019-02-15T06:35:38.206Z,7.40
2019-02-15T06:38:05.686Z,10.20
2019-02-15T06:40:33.113Z,8.00
2019-02-15T06:43:00.515Z,6.10
2019-02-15T06:45:28.024Z,6.60
2019-02-15T06:47:55.409Z,8.50
2019-02-15T06:50:22.855Z,7.60
2019-02-15T06:52:50.190Z,7.50
2019-02-15T06:55:17.523Z,8.70
2019-02-15T06:57:44.896Z,9.50
2019-02-15T07:00:34.609Z,7.60
2019-02-15T07:03:09.261Z,7.60
2019-02-15T07:05:36.780Z,7.60
2019-02-15T07:08:04.322Z,7.70
2019-02-15T07:10:31.832Z,7.70
2019-02-15T07:15:33.477Z,7.70
2019-02-15T07:17:55.925Z,7.70
2019-02-15T07:22:50.833Z,7.80
2019-02-15T07:25:18.273Z,7.80
2019-02-15T07:27:45.681Z,7.80
2019-02-15T07:30:12.957Z,7.80
2019-02-15T07:32:40.297Z,7.80
2019-02-15T07:35:07.721Z,7.90
2019-02-15T07:37:35.214Z,7.90
2019-02-15T07:40:03.167Z,7.90
2019-02-15T07:42:30.514Z,7.90
2019-02-15T07:44:57.891Z,8.00
2019-02-15T07:47:25.212Z,8.00
2019-02-15T07:49:52.659Z,8.00
2019-02-15T07:52:20.102Z,8.10
2019-02-15T07:54:47.582Z,8.10
2019-02-15T07:57:14.887Z,8.10
2019-02-15T07:59:42.335Z,8.20
2019-02-15T08:02:09.779Z,8.20
2019-02-15T08:04:37.040Z,8.30
2019-02-15T08:07:04.432Z,8.30
2019-02-15T08:09:51.494Z,8.30
2019-02-15T08:12:18.997Z,8.40
2019-02-15T08:17:14.051Z,8.40
2019-02-15T08:19:41.451Z,8.50
2019-02-15T08:29:31.042Z,8.70
2019-02-15T08:31:58.532Z,8.80
2019-02-15T08:34:25.982Z,8.80
2019-02-15T08:36:53.410Z,8.90
2019-02-15T08:39:20.795Z,9.00
2019-02-15T08:44:17.406Z,9.20
2019-02-15T08:46:44.725Z,9.30
2019-02-15T08:51:39.331Z,9.70
2019-02-15T08:54:06.765Z,9.90
2019-02-15T08:59:02.067Z,10.40
2019-02-15T09:01:30.053Z,12.70
2019-02-15T09:03:57.834Z,10.70
2019-02-15T09:06:25.961Z,11.30
2019-02-15T09:08:55.054Z,14.40
2019-02-15T09:11:22.922Z,11.70
2019-02-15T09:13:51.206Z,12.20
2019-02-15T09:16:18.864Z,12.90
2019-02-15T09:18:49.914Z,12.00
2019-02-15T09:21:17.522Z,13.40
2019-02-15T09:23:44.965Z,13.90
2019-02-15T09:26:18.030Z,13.80
2019-02-15T09:28:51.954Z,14.10
2019-02-15T09:31:19.295Z,14.30
2019-02-15T09:33:46.730Z,14.60
2019-02-15T09:36:14.123Z,14.90
2019-02-15T09:38:41.552Z,15.20
2019-02-15T09:41:09.022Z,15.40
2019-02-15T09:43:36.336Z,15.70
2019-02-15T09:46:03.844Z,16.00
2019-02-15T09:48:31.159Z,16.30
2019-02-15T09:50:59.454Z,16.60
2019-02-15T09:53:26.783Z,16.80
2019-02-15T09:55:54.113Z,17.10
2019-02-15T09:58:21.529Z,17.40
2019-02-15T10:00:48.917Z,17.60
2019-02-15T10:03:18.041Z,17.80
2019-02-15T10:05:45.439Z,18.00
2019-02-15T10:08:12.687Z,18.20
2019-02-15T10:10:40.053Z,18.40
2019-02-15T10:13:07.513Z,18.50
2019-02-15T10:15:34.853Z,18.60
2019-02-15T10:18:02.995Z,18.60
2019-02-15T10:20:30.462Z,18.70
2019-02-15T10:22:57.875Z,18.80
2019-02-15T10:25:25.217Z,18.90
2019-02-15T10:27:52.607Z,18.90
2019-02-15T10:30:20.005Z,19.00
2019-02-15T10:32:47.462Z,15.60
2019-02-15T10:35:15.021Z,19.20
2019-02-15T10:37:42.431Z,19.30
2019-02-15T10:40:10.135Z,19.40
2019-02-15T10:42:38.234Z,19.60
2019-02-15T10:45:06.803Z,19.80
2019-02-15T10:47:34.141Z,20.10
2019-02-15T10:50:01.588Z,20.50
2019-02-15T10:52:28.987Z,21.00
2019-02-15T10:54:56.502Z,21.50
2019-02-15T10:57:23.794Z,22.00
2019-02-15T10:59:51.227Z,21.60
2019-02-15T11:02:18.740Z,22.90
2019-02-15T11:04:46.518Z,23.40
2019-02-15T11:07:14.020Z,23.90
2019-02-15T11:09:41.368Z,24.40
2019-02-15T11:12:10.158Z,24.80
2019-02-15T11:14:37.541Z,25.20
2019-02-15T11:19:41.248Z,26.10
2019-02-15T11:22:08.716Z,26.40
2019-02-15T11:24:36.133Z,26.80
2019-02-15T11:27:03.710Z,27.20
2019-02-15T11:29:31.140Z,27.50
2019-02-15T11:31:58.630Z,27.80
2019-02-15T11:34:26.048Z,28.10
2019-02-15T11:36:53.440Z,28.50
2019-02-15T11:39:20.835Z,28.70
2019-02-15T11:41:48.388Z,29.10
2019-02-15T11:44:15.706Z,29.20
2019-02-15T11:46:43.111Z,29.50
2019-02-15T11:49:10.616Z,29.70
2019-02-15T11:51:38.047Z,30.00
2019-02-15T11:54:05.503Z,30.00
2019-02-15T11:56:32.968Z,30.20
2019-02-15T11:59:00.287Z,30.40
2019-02-15T12:01:27.696Z,30.50
2019-02-15T12:03:55.157Z,30.70
2019-02-15T12:06:22.642Z,30.90
2019-02-15T12:08:49.997Z,31.00
2019-02-15T12:11:17.361Z,31.20
2019-02-15T12:13:44.767Z,29.70
2019-02-15T12:16:12.277Z,31.40
2019-02-15T12:18:39.771Z,31.50
2019-02-15T12:21:07.222Z,31.50
2019-02-15T12:23:34.859Z,31.50
2019-02-15T12:26:02.272Z,31.40
2019-02-15T12:28:30.690Z,31.30
2019-02-15T12:30:58.239Z,31.20
2019-02-15T12:33:25.768Z,31.10
2019-02-15T12:35:53.153Z,30.70
2019-02-15T12:38:20.556Z,30.80
2019-02-15T12:40:48.092Z,30.70
2019-02-15T12:43:15.376Z,30.50
2019-02-15T12:45:42.791Z,30.40
2019-02-15T12:48:10.175Z,30.20
2019-02-15T12:50:37.579Z,29.90
2019-02-15T12:53:04.925Z,29.70
2019-02-15T12:55:32.301Z,29.40
2019-02-15T12:57:59.732Z,29.10
2019-02-15T13:00:27.122Z,28.90
2019-02-15T13:02:54.628Z,28.70
2019-02-15T13:05:22.278Z,28.60
2019-02-15T13:07:49.767Z,28.50
2019-02-15T13:10:20.913Z,28.40
2019-02-15T13:12:48.325Z,28.30
2019-02-15T13:15:15.695Z,28.20
2019-02-15T13:17:49.891Z,28.10
2019-02-15T13:20:17.333Z,27.90
2019-02-15T13:22:45.031Z,28.00
2019-02-15T13:25:12.647Z,27.90
2019-02-15T13:27:40.416Z,28.10
2019-02-15T13:30:09.476Z,28.10
2019-02-15T13:32:36.833Z,28.20
2019-02-15T13:35:05.326Z,28.30
2019-02-15T13:37:32.727Z,26.80
2019-02-15T13:40:00.147Z,28.50
2019-02-15T13:42:27.869Z,28.70
2019-02-15T13:44:55.278Z,28.90
2019-02-15T13:47:22.732Z,29.00
2019-02-15T13:49:50.038Z,29.10
2019-02-15T13:52:17.489Z,29.20
2019-02-15T13:54:44.813Z,29.30
2019-02-15T13:57:12.121Z,29.30
2019-02-15T13:59:39.419Z,29.40
2019-02-15T14:02:06.849Z,29.40
2019-02-15T14:04:34.300Z,29.40
2019-02-15T14:07:01.686Z,29.40
2019-02-15T14:09:29.044Z,29.40
2019-02-15T14:11:56.405Z,29.40
2019-02-15T14:14:23.838Z,29.40
2019-02-15T14:16:51.300Z,29.60
2019-02-15T14:19:18.765Z,29.30
2019-02-15T14:21:46.251Z,29.30
2019-02-15T14:24:13.664Z,29.20
2019-02-15T14:26:40.939Z,29.20
2019-02-15T14:29:08.232Z,29.10
2019-02-15T14:31:35.640Z,29.00
2019-02-15T14:34:03.048Z,28.90
2019-02-15T14:36:30.417Z,28.80
2019-02-15T14:38:57.735Z,28.70
2019-02-15T14:41:25.203Z,28.50
2019-02-15T14:43:52.522Z,28.40
2019-02-15T14:46:19.939Z,28.20
2019-02-15T14:48:47.320Z,28.00
2019-02-15T14:51:14.650Z,27.70
2019-02-15T14:53:42.081Z,27.40
2019-02-15T14:56:09.392Z,27.20
2019-02-15T14:58:36.727Z,26.90
2019-02-15T15:01:04.018Z,26.50
2019-02-15T15:03:31.375Z,26.10
2019-02-15T15:05:58.732Z,25.80
2019-02-15T15:08:26.156Z,25.40
2019-02-15T15:10:53.514Z,25.00
2019-02-15T15:13:20.946Z,24.60
2019-02-15T15:15:48.239Z,24.30
2019-02-15T15:18:15.650Z,23.90
2019-02-15T15:20:43.109Z,23.50
2019-02-15T15:23:10.554Z,23.20
2019-02-15T15:25:37.972Z,22.90
2019-02-15T15:28:05.265Z,22.30
2019-02-15T15:30:32.620Z,22.20
2019-02-15T15:32:59.977Z,21.90
2019-02-15T15:35:27.395Z,21.40
2019-02-15T15:37:55.537Z,21.10
2019-02-15T15:40:22.830Z,21.10
2019-02-15T15:42:50.090Z,20.70
2019-02-15T15:45:17.506Z,20.60
2019-02-15T15:47:44.977Z,20.50
2019-02-15T15:50:12.630Z,20.10
2019-02-15T15:52:40.087Z,20.00
2019-02-15T15:55:08.583Z,19.90
2019-02-15T15:57:36.052Z,19.70
2019-02-15T16:00:03.601Z,19.60
2019-02-15T16:02:31.046Z,19.40
2019-02-15T16:04:58.471Z,19.30
2019-02-15T16:07:25.944Z,19.10
2019-02-15T16:09:53.348Z,19.00
2019-02-15T16:12:20.724Z,18.90
2019-02-15T16:14:48.139Z,18.70
2019-02-15T16:17:15.451Z,18.60
2019-02-15T16:19:49.150Z,18.50
2019-02-15T16:22:12.084Z,18.40
2019-02-15T16:24:39.429Z,18.30
2019-02-15T16:27:06.787Z,18.20
2019-02-15T16:29:34.578Z,18.10
2019-02-15T16:32:01.979Z,18.00
2019-02-15T16:34:29.455Z,18.00
2019-02-15T16:36:56.827Z,17.80
2019-02-15T16:39:24.373Z,17.80
2019-02-15T16:41:51.950Z,17.40
2019-02-15T16:44:19.322Z,17.70
2019-02-15T16:46:52.401Z,17.60
2019-02-15T16:49:19.791Z,17.50
2019-02-15T16:51:47.125Z,17.40
2019-02-15T16:54:14.468Z,17.40
2019-02-15T16:56:42.235Z,17.30
2019-02-15T16:59:09.551Z,17.20
2019-02-15T17:01:36.878Z,17.20
2019-02-15T17:04:04.277Z,17.20
2019-02-15T17:06:31.654Z,17.10
2019-02-15T17:09:57.919Z,17.00
2019-02-15T17:12:25.726Z,16.90
2019-02-15T17:14:56.500Z,16.50
2019-02-15T17:17:24.088Z,20.80
2019-02-15T17:19:52.485Z,14.70
2019-02-15T17:22:20.051Z,16.30
2019-02-15T17:24:48.072Z,15.00
2019-02-15T17:27:35.165Z,16.50
2019-02-15T17:30:02.834Z,16.50
2019-02-15T17:32:30.219Z,16.40
2019-02-15T17:34:57.656Z,16.30
2019-02-15T17:37:24.976Z,16.30
2019-02-15T17:39:54.095Z,16.20
2019-02-15T17:42:21.571Z,16.10
2019-02-15T17:44:48.953Z,16.00
2019-02-15T17:47:16.315Z,16.00
2019-02-15T17:49:43.719Z,16.00
2019-02-15T17:52:11.177Z,15.90
2019-02-15T17:54:59.858Z,15.80
2019-02-15T17:57:27.310Z,15.80
2019-02-15T17:59:54.765Z,15.80
2019-02-15T18:02:22.070Z,15.70
2019-02-15T18:07:16.754Z,15.50
2019-02-15T18:09:44.052Z,15.50
2019-02-15T18:12:11.340Z,15.40
2019-02-15T18:14:38.600Z,15.40
2019-02-15T18:17:05.960Z,15.40
2019-02-15T18:19:33.530Z,15.40
2019-02-15T18:22:02.973Z,15.20
2019-02-15T18:24:30.380Z,15.30
2019-02-15T18:26:57.787Z,15.20
2019-02-15T18:29:25.118Z,15.10
2019-02-15T18:31:52.388Z,15.20
2019-02-15T18:34:19.712Z,15.10
2019-02-15T18:36:47.166Z,15.00
2019-02-15T18:39:14.443Z,14.90
2019-02-15T18:41:41.846Z,14.90
2019-02-15T18:44:11.851Z,14.80
2019-02-15T18:46:39.574Z,14.80
2019-02-15T18:49:07.045Z,14.70
2019-02-15T18:51:34.484Z,14.60
2019-02-15T18:56:48.739Z,14.50
2019-02-15T18:59:16.303Z,14.50
2019-02-15T19:01:43.765Z,14.40
2019-02-15T19:04:11.333Z,14.30
2019-02-15T19:06:41.083Z,14.30
2019-02-15T19:09:08.545Z,14.20
2019-02-15T19:11:35.939Z,14.10
2019-02-15T19:14:03.429Z,14.10
2019-02-15T19:16:32.117Z,14.10
2019-02-15T19:18:59.623Z,14.00
2019-02-15T19:21:27.316Z,14.00
2019-02-15T19:23:55.151Z,13.90
2019-02-15T19:26:22.700Z,13.90
2019-02-15T19:28:50.255Z,13.80
2019-02-15T19:31:18.049Z,13.90
2019-02-15T19:33:45.663Z,13.80
2019-02-15T19:36:13.235Z,13.70
2019-02-15T19:38:41.225Z,13.70
2019-02-15T19:41:08.757Z,13.60
2019-02-15T19:43:36.229Z,13.70
2019-02-15T19:46:03.705Z,13.60
2019-02-15T19:48:31.245Z,13.60
2019-02-15T19:50:58.613Z,13.50
2019-02-15T19:53:26.049Z,13.50
2019-02-15T19:55:53.645Z,13.40
2019-02-15T19:58:20.962Z,13.40
2019-02-15T20:00:48.322Z,13.30
2019-02-15T20:03:15.736Z,13.30
2019-02-15T20:05:43.914Z,13.30
2019-02-15T20:08:11.315Z,13.20
2019-02-15T20:10:38.844Z,13.20
2019-02-15T20:13:06.332Z,13.20
2019-02-15T20:15:33.748Z,13.10
2019-02-15T20:18:01.144Z,13.10
2019-02-15T20:20:28.561Z,13.10
2019-02-15T20:22:56.004Z,13.10
2019-02-15T20:25:23.416Z,13.10
2019-02-15T20:27:50.884Z,13.10
2019-02-15T20:32:45.707Z,12.90
2019-02-15T20:35:13.705Z,12.90
2019-02-15T20:37:41.230Z,12.90
2019-02-15T20:40:09.281Z,12.90
2019-02-15T20:45:04.826Z,12.70
2019-02-15T20:47:32.230Z,12.80
2019-02-15T20:49:59.593Z,12.60
2019-02-15T20:54:54.360Z,12.50
2019-02-15T20:57:21.789Z,12.50
2019-02-15T20:59:49.191Z,12.40
2019-02-15T21:02:16.542Z,12.40
2019-02-15T21:04:43.903Z,12.40
2019-02-15T21:07:11.246Z,12.40
2019-02-15T21:09:38.694Z,12.30
2019-02-15T21:12:06.170Z,12.30
2019-02-15T21:14:33.577Z,12.20
2019-02-15T21:17:00.914Z,12.20
2019-02-15T21:19:28.478Z,15.10
2019-02-15T21:21:56.091Z,12.20
2019-02-15T21:24:23.604Z,15.50
2019-02-15T21:26:50.964Z,12.70
2019-02-15T21:29:18.317Z,12.00
2019-02-15T21:31:45.747Z,11.90
2019-02-15T21:34:13.223Z,11.90
2019-02-15T21:36:40.763Z,11.90
2019-02-15T21:39:08.198Z,11.50
2019-02-15T21:41:35.637Z,12.30
2019-02-15T21:44:03.059Z,12.00
2019-02-15T21:46:30.597Z,12.30
2019-02-15T21:48:57.916Z,11.80
2019-02-15T21:51:25.349Z,11.80
2019-02-15T21:53:52.677Z,11.70
2019-02-15T21:56:20.235Z,12.50
2019-02-15T21:58:47.620Z,11.70
2019-02-15T22:01:16.051Z,13.60
2019-02-15T22:03:43.367Z,12.00
2019-02-15T22:06:10.805Z,11.60
2019-02-15T22:08:38.206Z,11.70
2019-02-15T22:11:05.707Z,12.10
2019-02-15T22:13:34.874Z,11.50
2019-02-15T22:16:02.248Z,11.50
2019-02-15T22:18:29.643Z,11.50
2019-02-15T22:20:57.040Z,11.50
2019-02-15T22:23:24.384Z,11.40
2019-02-15T22:25:51.785Z,11.30
2019-02-15T22:28:19.184Z,11.30
2019-02-15T22:30:46.483Z,11.30
2019-02-15T22:33:16.664Z,11.40
2019-02-15T22:35:43.997Z,11.20
2019-02-15T22:38:11.679Z,11.10
2019-02-15T22:40:40.936Z,11.20
2019-02-15T22:43:11.159Z,11.20
2019-02-15T22:45:38.471Z,11.10
2019-02-15T22:48:05.895Z,11.10
2019-02-15T22:50:36.041Z,11.10
2019-02-15T22:53:02.531Z,11.00
2019-02-15T22:55:29.920Z,11.40
2019-02-15T22:57:57.289Z,11.00
2019-02-15T23:00:45.414Z,11.00
2019-02-15T23:03:13.893Z,11.00
2019-02-15T23:05:41.466Z,12.10
2019-02-15T23:08:08.915Z,10.90
2019-02-15T23:10:55.854Z,10.90
2019-02-15T23:13:23.252Z,10.90
2019-02-15T23:15:51.165Z,10.80
2019-02-15T23:18:19.175Z,10.80
2019-02-15T23:20:46.740Z,10.80
2019-02-15T23:23:14.151Z,10.70
2019-02-15T23:26:01.010Z,10.60
2019-02-15T23:28:28.994Z,10.60
2019-02-15T23:30:56.372Z,10.60
2019-02-15T23:33:23.741Z,10.50
2019-02-15T23:35:51.299Z,10.50
2019-02-15T23:38:18.690Z,10.50
2019-02-15T23:40:46.021Z,10.50
2019-02-15T23:43:13.349Z,10.40
2019-02-15T23:45:40.730Z,10.40
2019-02-15T23:48:08.127Z,10.30
2019-02-15T23:50:35.634Z,10.30
2019-02-15T23:53:02.918Z,10.30
2019-02-15T23:55:30.240Z,10.20
2019-02-15T23:57:57.682Z,10.30
